Ludlow, Maine
Current Conditions -  °F | °C
As of 12:53 AM on Monday 26 Jan 2015 (Local Time) from KHUL Reporting Station
Clear Clear  
Wind Chill: -10°   Ceiling: Unl
Heat Index:   Visibility: 10mi
Dew Point: -7°   Wind: 10mph
Humidity: 58%   Direction: 290°WNW
Pressure: 29.89"   Gusts: NA
Location:  46.1163°N, 67.9329°W
Report Text: KHUL 260553Z AUTO 29009KT 10SM CLR M15/M22 A2989 RMK AO2 SLP133 T11501217 11133 21150 51045
Loading
Personal Weather Stations






























Interactive Weather Map New forecast layout! Learn more

10-Day Weather Forecast

Advertisements
Track Severe Weather on mobile